Pagina principale
METAR-TAF:

METAR-TAF

Aeroporti :

Aeroporto di Amendola

Foggia, Italia

latitudine: 41-32N, longitudine: 015-43E, altezza: 57 m

Osservazione

Il bollettino è stato emesso 33 minuti fa, alle 04:55 UTC
Vento 5 kt da ovest
Temperature 1°C
Umidità 86%
Pressione 1022 hPa
Visibilità: 4000 m
foschia

METAR: LIBA 200455Z 28005KT 4000 BR NSC 01/M01 Q1022 RMK SKC VIS MIN 4000 WIND THR11 28005KT WIND THR29 /////KT GRN

Ora: 06:28 (05:28 UTC)

Previsione

Il bollettino è stato emesso 12 ore e 28 minuti fa, alle 17:00 UTC
Previsione valida dal 19 alle 18 UTC al 20 alle 03 UTC
Vento 8 kt da est
Visibilità: 5000 m
foschia
Evoluzione graduale
dal 19 alle 20 UTC al 19 alle 22 UTC
Vento 6 kt da ovest/nord-ovest
Visibilità: 2500 m
foschia
Evoluzione graduale
dal 19 alle 23 UTC al 20 alle 01 UTC
Visibilità: 0800 m
Nubi sparse ad un'altezza di 500 ft
nebbia

TAF: LIBA 191700Z 1918/2003 09008KT 5000 BR NSC BECMG 1920/1922 29006KT 2500 BR NSC BECMG 1923/2001 0800 FG SCT005

Osservazioni e previsioni meteorologiche di più di 4000 aeroporti (messaggi METAR e TAF).

Le stazioni disponibili sono rappresentate dai dischi gialli e rossi sulla carta.

Puntare il mouse per vedere il nome della stazione.

Clicca sopra per visualizzare le osservazioni e previsioni meteorologiche.

Per cambiare la mappa : fare clic sui pulsanti verdi con una croce nera per ingrandire, il pulsante verde con un trattino per diminuire, o sulla freccia verde per le mappe adiacenti.


METAR-TAF: